Terminal Aerodrome Forecast
Issued by NWS

Home | Current Version | Previous Version | Text Only | Print | Product List | Glossary On
Versions: 1 2 3 4 5 6 7 8 9 10 11 12 13 14
656
FTPA31 PHFO 201138
TAFHMK
TAF
PHMK 201138Z 2012/2112 03009KT P6SM VCSH FEW020 BKN060
     FM202000 04016G23KT P6SM FEW025 FEW060
     FM210500 05012G18KT P6SM FEW020 FEW060=

USA.gov is the U.S. government's official web portal to all federal, state and local government web resources and services.